DLH5JV EDDP-EDDF
Flight info
| Callsign | DLH5JV |
|---|---|
| Flight time | 0h 47m |
| Altitude | 24000 |
| Route | ORTAG5N ORTAG T177 ODIPI/N0412F210 T157 KERAX KERAX5D |
| Aircraft | A321/M-SDE3FGHIRWY/LB1 |
Departure
| Time | 2026-04-14 22:04 |
|---|---|
| Airport | Leipzig/Halle Airport (EDDP) |
Arrival
| Time | 2026-04-14 22:51 |
|---|---|
| Airport | Frankfurt Main Airport (EDDF) |
| Time | Latitude | Longitude | Altitude | Speed | Heading |
|---|---|---|---|---|---|
| 2026-04-14 20:22 | 51.41934 | 12.21879 | 436 ft | 0 kts | 15° |
| 2026-04-14 21:50 | 51.41922 | 12.21875 | 422 ft | 4 kts | 17° |
| 2026-04-14 21:50 | 51.41897 | 12.21861 | 429 ft | 4 kts | 17° |
| 2026-04-14 21:51 | 51.41871 | 12.21852 | 432 ft | 4 kts | 360° |
| 2026-04-14 21:51 | 51.41848 | 12.21860 | 427 ft | 4 kts | 332° |
| 2026-04-14 21:51 | 51.41830 | 12.21886 | 436 ft | 4 kts | 289° |
| 2026-04-14 21:51 | 51.41824 | 12.21926 | 425 ft | 2 kts | 284° |
| 2026-04-14 21:52 | 51.41823 | 12.21929 | 436 ft | 0 kts | 285° |
| 2026-04-14 21:53 | 51.41827 | 12.21908 | 432 ft | 4 kts | 285° |
| 2026-04-14 21:54 | 51.41839 | 12.21838 | 431 ft | 9 kts | 285° |
| 2026-04-14 21:54 | 51.41859 | 12.21724 | 432 ft | 12 kts | 285° |
| 2026-04-14 21:54 | 51.41884 | 12.21578 | 428 ft | 15 kts | 285° |
| 2026-04-14 21:54 | 51.41916 | 12.21389 | 433 ft | 19 kts | 284° |
| 2026-04-14 21:55 | 51.41952 | 12.21178 | 419 ft | 20 kts | 285° |
| 2026-04-14 21:55 | 51.41985 | 12.20986 | 421 ft | 13 kts | 282° |
| 2026-04-14 21:55 | 51.41946 | 12.20876 | 416 ft | 11 kts | 204° |
| 2026-04-14 21:55 | 51.41864 | 12.20838 | 416 ft | 14 kts | 195° |
| 2026-04-14 21:56 | 51.41759 | 12.20792 | 416 ft | 16 kts | 195° |
| 2026-04-14 21:56 | 51.41647 | 12.20742 | 427 ft | 17 kts | 195° |
| 2026-04-14 21:56 | 51.41531 | 12.20692 | 434 ft | 18 kts | 195° |
| 2026-04-14 21:56 | 51.41410 | 12.20639 | 438 ft | 19 kts | 195° |
| 2026-04-14 21:57 | 51.41279 | 12.20582 | 441 ft | 21 kts | 195° |
| 2026-04-14 21:57 | 51.41125 | 12.20515 | 438 ft | 23 kts | 196° |
| 2026-04-14 21:57 | 51.41010 | 12.20507 | 425 ft | 15 kts | 138° |
| 2026-04-14 21:57 | 51.40999 | 12.20664 | 439 ft | 14 kts | 86° |
| 2026-04-14 21:58 | 51.41006 | 12.20820 | 429 ft | 14 kts | 86° |
| 2026-04-14 21:58 | 51.41014 | 12.20982 | 442 ft | 14 kts | 85° |
| 2026-04-14 21:58 | 51.41021 | 12.21123 | 448 ft | 11 kts | 85° |
| 2026-04-14 21:58 | 51.41026 | 12.21241 | 451 ft | 12 kts | 86° |
| 2026-04-14 21:59 | 51.41034 | 12.21407 | 451 ft | 18 kts | 85° |
| 2026-04-14 21:59 | 51.41044 | 12.21631 | 459 ft | 22 kts | 85° |
| 2026-04-14 21:59 | 51.41052 | 12.21797 | 460 ft | 23 kts | 85° |
| 2026-04-14 21:59 | 51.41069 | 12.22154 | 459 ft | 25 kts | 85° |
| 2026-04-14 22:00 | 51.41078 | 12.22344 | 459 ft | 26 kts | 85° |
| 2026-04-14 22:00 | 51.41091 | 12.22631 | 462 ft | 25 kts | 85° |
| 2026-04-14 22:00 | 51.41105 | 12.22905 | 467 ft | 24 kts | 85° |
| 2026-04-14 22:00 | 51.41117 | 12.23169 | 471 ft | 23 kts | 85° |
| 2026-04-14 22:01 | 51.41129 | 12.23425 | 475 ft | 23 kts | 86° |
| 2026-04-14 22:01 | 51.41141 | 12.23688 | 473 ft | 25 kts | 86° |
| 2026-04-14 22:01 | 51.41154 | 12.23969 | 473 ft | 26 kts | 85° |
| 2026-04-14 22:01 | 51.41168 | 12.24266 | 471 ft | 28 kts | 85° |
| 2026-04-14 22:02 | 51.41182 | 12.24567 | 474 ft | 27 kts | 86° |
| 2026-04-14 22:02 | 51.41197 | 12.24869 | 476 ft | 27 kts | 85° |
| 2026-04-14 22:02 | 51.41211 | 12.25180 | 473 ft | 27 kts | 85° |
| 2026-04-14 22:02 | 51.41220 | 12.25353 | 474 ft | 13 kts | 81° |
| 2026-04-14 22:03 | 51.41281 | 12.25416 | 475 ft | 12 kts | 343° |
| 2026-04-14 22:03 | 51.41346 | 12.25333 | 473 ft | 13 kts | 307° |
| 2026-04-14 22:03 | 51.41379 | 12.25114 | 475 ft | 29 kts | 266° |
| 2026-04-14 22:03 | 51.41344 | 12.24375 | 476 ft | 104 kts | 266° |
| 2026-04-14 22:04 | 51.41274 | 12.22857 | 524 ft | 160 kts | 265° |
| 2026-04-14 22:04 | 51.41195 | 12.21138 | 1295 ft | 156 kts | 265° |
| 2026-04-14 22:04 | 51.41114 | 12.19420 | 2039 ft | 154 kts | 265° |
| 2026-04-14 22:04 | 51.41030 | 12.17649 | 2499 ft | 169 kts | 265° |
| 2026-04-14 22:05 | 51.40937 | 12.15661 | 2823 ft | 190 kts | 266° |
| 2026-04-14 22:05 | 51.40835 | 12.13435 | 3095 ft | 211 kts | 267° |
| 2026-04-14 22:05 | 51.40718 | 12.10938 | 3354 ft | 237 kts | 268° |
| 2026-04-14 22:05 | 51.40588 | 12.08185 | 3845 ft | 254 kts | 268° |
| 2026-04-14 22:06 | 51.40452 | 12.05360 | 4581 ft | 260 kts | 268° |
| 2026-04-14 22:06 | 51.40308 | 12.02451 | 5395 ft | 263 kts | 267° |
| 2026-04-14 22:06 | 51.40162 | 11.99512 | 6200 ft | 266 kts | 267° |
| 2026-04-14 22:06 | 51.40013 | 11.96539 | 6980 ft | 269 kts | 267° |
| 2026-04-14 22:07 | 51.39860 | 11.93520 | 7764 ft | 273 kts | 267° |
| 2026-04-14 22:07 | 51.39708 | 11.90477 | 8528 ft | 275 kts | 267° |
| 2026-04-14 22:07 | 51.39557 | 11.87404 | 9270 ft | 278 kts | 266° |
| 2026-04-14 22:07 | 51.39402 | 11.84295 | 10015 ft | 281 kts | 266° |
| 2026-04-14 22:08 | 51.39241 | 11.81137 | 10602 ft | 292 kts | 266° |
| 2026-04-14 22:08 | 51.39069 | 11.77777 | 10786 ft | 313 kts | 265° |
| 2026-04-14 22:08 | 51.38892 | 11.74233 | 11268 ft | 322 kts | 265° |
| 2026-04-14 22:08 | 51.38710 | 11.70678 | 11913 ft | 325 kts | 263° |
| 2026-04-14 22:09 | 51.38065 | 11.67202 | 12558 ft | 329 kts | 243° |
| 2026-04-14 22:09 | 51.36816 | 11.64118 | 13223 ft | 331 kts | 236° |
| 2026-04-14 22:09 | 51.35486 | 11.61071 | 13839 ft | 335 kts | 236° |
| 2026-04-14 22:09 | 51.34151 | 11.58036 | 14437 ft | 338 kts | 236° |
| 2026-04-14 22:10 | 51.32790 | 11.54947 | 15035 ft | 341 kts | 236° |
| 2026-04-14 22:10 | 51.31414 | 11.51818 | 15622 ft | 345 kts | 236° |
| 2026-04-14 22:10 | 51.30021 | 11.48656 | 16198 ft | 348 kts | 236° |
| 2026-04-14 22:10 | 51.28618 | 11.45477 | 16772 ft | 352 kts | 236° |
| 2026-04-14 22:11 | 51.27199 | 11.42263 | 17338 ft | 355 kts | 236° |
| 2026-04-14 22:11 | 51.25770 | 11.39027 | 17881 ft | 358 kts | 236° |
| 2026-04-14 22:11 | 51.24346 | 11.35801 | 18411 ft | 361 kts | 236° |
| 2026-04-14 22:11 | 51.22902 | 11.32499 | 18933 ft | 364 kts | 237° |
| 2026-04-14 22:12 | 51.21475 | 11.29132 | 19459 ft | 366 kts | 237° |
| 2026-04-14 22:12 | 51.20062 | 11.25733 | 19976 ft | 369 kts | 238° |
| 2026-04-14 22:12 | 51.18641 | 11.22302 | 20483 ft | 371 kts | 238° |
| 2026-04-14 22:12 | 51.17211 | 11.18850 | 20973 ft | 374 kts | 238° |
| 2026-04-14 22:13 | 51.15783 | 11.15417 | 21434 ft | 377 kts | 237° |
| 2026-04-14 22:13 | 51.14321 | 11.11933 | 21911 ft | 379 kts | 237° |
| 2026-04-14 22:13 | 51.12847 | 11.08433 | 22356 ft | 381 kts | 237° |
| 2026-04-14 22:13 | 51.11360 | 11.04910 | 22795 ft | 383 kts | 237° |
| 2026-04-14 22:14 | 51.09869 | 11.01375 | 23223 ft | 385 kts | 237° |
| 2026-04-14 22:14 | 51.08365 | 10.97823 | 23626 ft | 388 kts | 237° |
| 2026-04-14 22:14 | 51.06853 | 10.94253 | 24027 ft | 390 kts | 237° |
| 2026-04-14 22:14 | 51.05344 | 10.90696 | 24233 ft | 392 kts | 237° |
| 2026-04-14 22:15 | 51.03843 | 10.87170 | 24270 ft | 377 kts | 237° |
| 2026-04-14 22:15 | 51.02381 | 10.83752 | 24273 ft | 372 kts | 237° |
| 2026-04-14 22:15 | 51.00925 | 10.80350 | 24275 ft | 370 kts | 237° |
| 2026-04-14 22:15 | 50.99474 | 10.76946 | 24274 ft | 370 kts | 237° |
| 2026-04-14 22:16 | 50.98054 | 10.73607 | 24274 ft | 370 kts | 237° |
| 2026-04-14 22:16 | 50.96616 | 10.70221 | 24273 ft | 370 kts | 237° |
| 2026-04-14 22:16 | 50.95176 | 10.66845 | 24275 ft | 369 kts | 237° |
| 2026-04-14 22:16 | 50.93728 | 10.63472 | 24277 ft | 370 kts | 237° |
| 2026-04-14 22:17 | 50.92280 | 10.60110 | 24275 ft | 370 kts | 237° |
| 2026-04-14 22:17 | 50.90830 | 10.56744 | 24275 ft | 370 kts | 237° |
| 2026-04-14 22:17 | 50.89379 | 10.53376 | 24274 ft | 370 kts | 237° |
| 2026-04-14 22:17 | 50.87924 | 10.49998 | 24275 ft | 370 kts | 237° |
| 2026-04-14 22:18 | 50.86472 | 10.46629 | 24275 ft | 370 kts | 237° |
| 2026-04-14 22:18 | 50.85026 | 10.43272 | 24274 ft | 369 kts | 237° |
| 2026-04-14 22:18 | 50.83588 | 10.39941 | 24271 ft | 369 kts | 237° |
| 2026-04-14 22:18 | 50.82134 | 10.36579 | 24269 ft | 370 kts | 237° |
| 2026-04-14 22:19 | 50.80680 | 10.33220 | 24267 ft | 370 kts | 237° |
| 2026-04-14 22:19 | 50.77760 | 10.26511 | 24270 ft | 370 kts | 237° |
| 2026-04-14 22:19 | 50.76299 | 10.23165 | 24269 ft | 369 kts | 237° |
| 2026-04-14 22:20 | 50.74857 | 10.19858 | 24268 ft | 369 kts | 237° |
| 2026-04-14 22:20 | 50.73400 | 10.16515 | 24268 ft | 369 kts | 237° |
| 2026-04-14 22:20 | 50.71941 | 10.13170 | 24270 ft | 369 kts | 237° |
| 2026-04-14 22:20 | 50.70483 | 10.09836 | 24267 ft | 369 kts | 236° |
| 2026-04-14 22:21 | 50.69021 | 10.06500 | 24270 ft | 369 kts | 236° |
| 2026-04-14 22:21 | 50.67557 | 10.03162 | 24271 ft | 369 kts | 236° |
| 2026-04-14 22:21 | 50.66096 | 9.99834 | 24273 ft | 369 kts | 236° |
| 2026-04-14 22:21 | 50.64631 | 9.96507 | 24268 ft | 369 kts | 236° |
| 2026-04-14 22:22 | 50.63180 | 9.93211 | 24267 ft | 370 kts | 236° |
| 2026-04-14 22:22 | 50.61709 | 9.89872 | 24264 ft | 370 kts | 236° |
| 2026-04-14 22:22 | 50.60238 | 9.86537 | 24262 ft | 370 kts | 236° |
| 2026-04-14 22:22 | 50.58767 | 9.83214 | 24262 ft | 370 kts | 236° |
| 2026-04-14 22:23 | 50.57289 | 9.79891 | 24264 ft | 370 kts | 236° |
| 2026-04-14 22:23 | 50.55811 | 9.76568 | 24264 ft | 370 kts | 236° |
| 2026-04-14 22:23 | 50.54335 | 9.73245 | 24263 ft | 370 kts | 236° |
| 2026-04-14 22:23 | 50.52868 | 9.69980 | 24263 ft | 370 kts | 236° |
| 2026-04-14 22:24 | 50.51369 | 9.66679 | 24263 ft | 370 kts | 236° |
| 2026-04-14 22:24 | 50.49868 | 9.63386 | 24263 ft | 370 kts | 236° |
| 2026-04-14 22:24 | 50.48207 | 9.60282 | 24264 ft | 372 kts | 225° |
| 2026-04-14 22:24 | 50.46183 | 9.57734 | 24263 ft | 374 kts | 214° |
| 2026-04-14 22:25 | 50.43902 | 9.55865 | 24259 ft | 375 kts | 204° |
| 2026-04-14 22:25 | 50.41475 | 9.54315 | 24256 ft | 376 kts | 202° |
| 2026-04-14 22:25 | 50.38958 | 9.53163 | 24253 ft | 378 kts | 192° |
| 2026-04-14 22:25 | 50.36338 | 9.52782 | 24251 ft | 380 kts | 181° |
| 2026-04-14 22:26 | 50.33702 | 9.53175 | 24251 ft | 381 kts | 173° |
| 2026-04-14 22:26 | 50.31079 | 9.53801 | 24253 ft | 381 kts | 173° |
| 2026-04-14 22:26 | 50.28445 | 9.54420 | 24251 ft | 381 kts | 173° |
| 2026-04-14 22:26 | 50.25851 | 9.55022 | 24252 ft | 381 kts | 173° |
| 2026-04-14 22:27 | 50.23226 | 9.55624 | 24253 ft | 381 kts | 173° |
| 2026-04-14 22:27 | 50.20593 | 9.56223 | 24254 ft | 381 kts | 173° |
| 2026-04-14 22:27 | 50.17969 | 9.56819 | 24256 ft | 381 kts | 173° |
| 2026-04-14 22:27 | 50.15342 | 9.57418 | 24257 ft | 381 kts | 173° |
| 2026-04-14 22:28 | 50.12714 | 9.58013 | 24260 ft | 381 kts | 173° |
| 2026-04-14 22:28 | 50.10093 | 9.58607 | 24260 ft | 381 kts | 173° |
| 2026-04-14 22:28 | 50.07470 | 9.59209 | 24262 ft | 381 kts | 173° |
| 2026-04-14 22:28 | 50.04878 | 9.59806 | 24262 ft | 380 kts | 173° |
| 2026-04-14 22:29 | 50.02253 | 9.60403 | 24265 ft | 385 kts | 174° |
| 2026-04-14 22:29 | 49.99539 | 9.60481 | 24267 ft | 396 kts | 188° |
| 2026-04-14 22:29 | 49.96818 | 9.59527 | 24268 ft | 407 kts | 201° |
| 2026-04-14 22:29 | 49.94278 | 9.57531 | 24265 ft | 411 kts | 216° |
| 2026-04-14 22:30 | 49.92130 | 9.54607 | 24266 ft | 411 kts | 230° |
| 2026-04-14 22:30 | 49.90523 | 9.50956 | 24265 ft | 410 kts | 244° |
| 2026-04-14 22:30 | 49.89409 | 9.46881 | 24262 ft | 411 kts | 249° |
| 2026-04-14 22:30 | 49.88345 | 9.42806 | 24022 ft | 403 kts | 248° |
| 2026-04-14 22:31 | 49.87471 | 9.38775 | 23593 ft | 396 kts | 257° |
| 2026-04-14 22:31 | 49.87092 | 9.34581 | 23056 ft | 390 kts | 268° |
| 2026-04-14 22:31 | 49.87234 | 9.30412 | 22580 ft | 385 kts | 279° |
| 2026-04-14 22:31 | 49.87844 | 9.26409 | 22117 ft | 378 kts | 287° |
| 2026-04-14 22:32 | 49.88597 | 9.22519 | 21669 ft | 373 kts | 286° |
| 2026-04-14 22:32 | 49.89330 | 9.18688 | 21232 ft | 368 kts | 286° |
| 2026-04-14 22:32 | 49.90051 | 9.14903 | 20792 ft | 362 kts | 286° |
| 2026-04-14 22:32 | 49.90747 | 9.11221 | 20352 ft | 357 kts | 286° |
| 2026-04-14 22:33 | 49.91439 | 9.07550 | 19922 ft | 353 kts | 286° |
| 2026-04-14 22:33 | 49.92106 | 9.04006 | 19486 ft | 351 kts | 286° |
| 2026-04-14 22:33 | 49.92793 | 9.00383 | 19036 ft | 350 kts | 287° |
| 2026-04-14 22:33 | 49.93476 | 8.96819 | 18584 ft | 346 kts | 287° |
| 2026-04-14 22:34 | 49.94164 | 8.93242 | 18124 ft | 345 kts | 287° |
| 2026-04-14 22:34 | 49.94847 | 8.89681 | 17655 ft | 343 kts | 287° |
| 2026-04-14 22:34 | 49.95522 | 8.86135 | 17186 ft | 341 kts | 287° |
| 2026-04-14 22:34 | 49.96180 | 8.82653 | 16723 ft | 338 kts | 287° |
| 2026-04-14 22:35 | 49.96840 | 8.79149 | 16247 ft | 336 kts | 287° |
| 2026-04-14 22:35 | 49.97437 | 8.75647 | 15781 ft | 334 kts | 281° |
| 2026-04-14 22:35 | 49.97630 | 8.72057 | 15311 ft | 332 kts | 269° |
| 2026-04-14 22:35 | 49.97360 | 8.68491 | 14838 ft | 331 kts | 258° |
| 2026-04-14 22:36 | 49.96674 | 8.65132 | 14368 ft | 330 kts | 250° |
| 2026-04-14 22:36 | 49.95864 | 8.61804 | 13899 ft | 328 kts | 250° |
| 2026-04-14 22:36 | 49.95065 | 8.58496 | 13428 ft | 326 kts | 250° |
| 2026-04-14 22:36 | 49.94269 | 8.55198 | 12958 ft | 324 kts | 250° |
| 2026-04-14 22:37 | 49.93482 | 8.51937 | 12496 ft | 322 kts | 250° |
| 2026-04-14 22:37 | 49.92699 | 8.48687 | 12029 ft | 320 kts | 250° |
| 2026-04-14 22:37 | 49.91921 | 8.45454 | 11578 ft | 318 kts | 250° |
| 2026-04-14 22:37 | 49.91160 | 8.42290 | 11125 ft | 316 kts | 250° |
| 2026-04-14 22:38 | 49.90394 | 8.39113 | 10766 ft | 310 kts | 250° |
| 2026-04-14 22:38 | 49.89650 | 8.36043 | 10592 ft | 298 kts | 250° |
| 2026-04-14 22:38 | 49.88926 | 8.33062 | 10293 ft | 292 kts | 250° |
| 2026-04-14 22:38 | 49.88210 | 8.30114 | 10123 ft | 290 kts | 250° |
| 2026-04-14 22:39 | 49.87497 | 8.27180 | 9999 ft | 290 kts | 250° |
| 2026-04-14 22:39 | 49.86782 | 8.24260 | 9855 ft | 290 kts | 250° |
| 2026-04-14 22:39 | 49.86073 | 8.21376 | 9733 ft | 290 kts | 250° |
| 2026-04-14 22:39 | 49.85353 | 8.18459 | 9600 ft | 290 kts | 250° |
| 2026-04-14 22:40 | 49.84635 | 8.15531 | 9481 ft | 289 kts | 250° |
| 2026-04-14 22:40 | 49.83933 | 8.12601 | 9355 ft | 289 kts | 250° |
| 2026-04-14 22:40 | 49.83240 | 8.09682 | 9119 ft | 284 kts | 250° |
| 2026-04-14 22:40 | 49.82547 | 8.06819 | 8809 ft | 281 kts | 250° |
| 2026-04-14 22:41 | 49.81854 | 8.03994 | 8747 ft | 286 kts | 250° |
| 2026-04-14 22:41 | 49.81143 | 8.01112 | 8671 ft | 286 kts | 250° |
| 2026-04-14 22:41 | 49.80430 | 7.98231 | 8596 ft | 286 kts | 249° |
| 2026-04-14 22:41 | 49.79810 | 7.95377 | 8512 ft | 273 kts | 261° |
| 2026-04-14 22:42 | 49.79879 | 7.92542 | 8436 ft | 257 kts | 287° |
| 2026-04-14 22:42 | 49.80656 | 7.90161 | 8358 ft | 242 kts | 311° |
| 2026-04-14 22:42 | 49.81751 | 7.88277 | 8281 ft | 228 kts | 313° |
| 2026-04-14 22:42 | 49.83011 | 7.86833 | 8169 ft | 243 kts | 340° |
| 2026-04-14 22:43 | 49.84781 | 7.86416 | 8044 ft | 268 kts | 4° |
| 2026-04-14 22:43 | 49.86620 | 7.87022 | 7920 ft | 272 kts | 23° |
| 2026-04-14 22:43 | 49.88224 | 7.88567 | 7792 ft | 272 kts | 43° |
| 2026-04-14 22:43 | 49.89377 | 7.90878 | 7664 ft | 272 kts | 63° |
| 2026-04-14 22:44 | 49.89857 | 7.92674 | 7579 ft | 272 kts | 69° |
| 2026-04-14 22:44 | 49.90524 | 7.95405 | 7292 ft | 268 kts | 69° |
| 2026-04-14 22:44 | 49.91184 | 7.98090 | 6965 ft | 265 kts | 69° |
| 2026-04-14 22:44 | 49.91832 | 8.00719 | 6792 ft | 256 kts | 69° |
| 2026-04-14 22:45 | 49.92465 | 8.03293 | 6716 ft | 262 kts | 69° |
| 2026-04-14 22:45 | 49.93123 | 8.05978 | 6627 ft | 267 kts | 69° |
| 2026-04-14 22:45 | 49.93787 | 8.08691 | 6348 ft | 270 kts | 69° |
| 2026-04-14 22:45 | 49.94445 | 8.11396 | 5965 ft | 269 kts | 69° |
| 2026-04-14 22:46 | 49.95107 | 8.14133 | 5415 ft | 273 kts | 70° |
| 2026-04-14 22:46 | 49.95776 | 8.16902 | 4973 ft | 273 kts | 69° |
| 2026-04-14 22:46 | 49.96441 | 8.19637 | 4574 ft | 266 kts | 69° |
| 2026-04-14 22:46 | 49.97073 | 8.22234 | 4212 ft | 248 kts | 69° |
| 2026-04-14 22:47 | 49.97655 | 8.24629 | 3876 ft | 231 kts | 69° |
| 2026-04-14 22:47 | 49.98199 | 8.26875 | 3562 ft | 213 kts | 69° |
| 2026-04-14 22:47 | 49.98707 | 8.28971 | 3271 ft | 200 kts | 69° |
| 2026-04-14 22:47 | 49.99178 | 8.30914 | 3003 ft | 183 kts | 69° |
| 2026-04-14 22:48 | 49.99609 | 8.32699 | 2745 ft | 170 kts | 69° |
| 2026-04-14 22:48 | 50.00012 | 8.34366 | 2511 ft | 162 kts | 69° |
| 2026-04-14 22:48 | 50.00397 | 8.35963 | 2301 ft | 154 kts | 69° |
| 2026-04-14 22:48 | 50.00764 | 8.37483 | 2087 ft | 148 kts | 69° |
| 2026-04-14 22:49 | 50.01122 | 8.38967 | 1873 ft | 146 kts | 69° |
| 2026-04-14 22:49 | 50.01476 | 8.40436 | 1674 ft | 145 kts | 69° |
| 2026-04-14 22:49 | 50.01831 | 8.41908 | 1461 ft | 145 kts | 68° |
| 2026-04-14 22:49 | 50.02180 | 8.43358 | 1263 ft | 145 kts | 68° |
| 2026-04-14 22:50 | 50.02533 | 8.44823 | 1053 ft | 144 kts | 69° |
| 2026-04-14 22:50 | 50.02885 | 8.46289 | 847 ft | 144 kts | 69° |
| 2026-04-14 22:50 | 50.03238 | 8.47753 | 642 ft | 144 kts | 69° |
| 2026-04-14 22:50 | 50.03585 | 8.49216 | 430 ft | 144 kts | 69° |
| 2026-04-14 22:51 | 50.03926 | 8.50634 | 323 ft | 128 kts | 69° |
| 2026-04-14 22:51 | 50.04190 | 8.51730 | 334 ft | 84 kts | 69° |
| 2026-04-14 22:51 | 50.04332 | 8.52324 | 348 ft | 35 kts | 70° |
| 2026-04-14 22:51 | 50.04385 | 8.52582 | 350 ft | 23 kts | 77° |
| 2026-04-14 22:52 | 50.04390 | 8.52827 | 352 ft | 22 kts | 97° |
| 2026-04-14 22:52 | 50.04366 | 8.53061 | 358 ft | 21 kts | 99° |
| 2026-04-14 22:52 | 50.04350 | 8.53270 | 364 ft | 17 kts | 85° |
| 2026-04-14 22:52 | 50.04383 | 8.53436 | 373 ft | 16 kts | 70° |
| 2026-04-14 22:53 | 50.04402 | 8.53608 | 375 ft | 17 kts | 84° |
| 2026-04-14 22:53 | 50.04414 | 8.53797 | 375 ft | 18 kts | 84° |
| 2026-04-14 22:53 | 50.04428 | 8.54006 | 375 ft | 20 kts | 84° |
| 2026-04-14 22:53 | 50.04443 | 8.54232 | 375 ft | 22 kts | 84° |
| 2026-04-14 22:54 | 50.04449 | 8.54484 | 372 ft | 21 kts | 98° |
| 2026-04-14 22:54 | 50.04383 | 8.54692 | 369 ft | 24 kts | 134° |
| 2026-04-14 22:54 | 50.04218 | 8.54825 | 360 ft | 29 kts | 160° |
| 2026-04-14 22:54 | 50.04026 | 8.54937 | 355 ft | 24 kts | 159° |
| 2026-04-14 22:55 | 50.03892 | 8.55015 | 356 ft | 17 kts | 159° |
| 2026-04-14 22:55 | 50.03852 | 8.55128 | 357 ft | 14 kts | 72° |
| 2026-04-14 22:55 | 50.03890 | 8.55286 | 357 ft | 17 kts | 69° |
| 2026-04-14 22:55 | 50.03934 | 8.55470 | 352 ft | 19 kts | 70° |
| 2026-04-14 22:56 | 50.03982 | 8.55673 | 356 ft | 21 kts | 69° |
| 2026-04-14 22:56 | 50.04034 | 8.55889 | 353 ft | 22 kts | 69° |
| 2026-04-14 22:56 | 50.04088 | 8.56114 | 355 ft | 22 kts | 70° |
| 2026-04-14 22:56 | 50.04124 | 8.56258 | 355 ft | 10 kts | 58° |
| 2026-04-14 22:57 | 50.04184 | 8.56271 | 362 ft | 9 kts | 342° |
| 2026-04-14 22:57 | 50.04249 | 8.56235 | 362 ft | 11 kts | 339° |
| 2026-04-14 22:57 | 50.04287 | 8.56152 | 361 ft | 11 kts | 275° |
| 2026-04-14 22:57 | 50.04333 | 8.56062 | 356 ft | 12 kts | 335° |
| 2026-04-14 22:58 | 50.04414 | 8.56035 | 363 ft | 13 kts | 17° |
| 2026-04-14 22:58 | 50.04463 | 8.56163 | 361 ft | 15 kts | 70° |
| 2026-04-14 22:58 | 50.04499 | 8.56313 | 361 ft | 14 kts | 69° |
| 2026-04-14 22:58 | 50.04507 | 8.56389 | 356 ft | 3 kts | 145° |
| 2026-04-14 22:59 | 50.04492 | 8.56400 | 356 ft | 3 kts | 150° |
| 2026-04-14 22:59 | 50.04466 | 8.56421 | 361 ft | 4 kts | 154° |
| 2026-04-14 22:59 | 50.04459 | 8.56426 | 356 ft | 1 kts | 154° |
| 2026-04-14 22:59 | 50.04455 | 8.56429 | 356 ft | 0 kts | 154° |